createdAt,value
2019-03-22T00:00:46.469Z,49.38
2019-03-22T00:03:20.578Z,50.21
2019-03-22T00:05:54.362Z,49.13
2019-03-22T00:08:28.238Z,47.77
2019-03-22T00:11:04.019Z,49.46
2019-03-22T00:13:37.641Z,47.13
2019-03-22T00:16:11.276Z,47.00
2019-03-22T00:18:48.016Z,45.84
2019-03-22T00:21:21.735Z,47.07
2019-03-22T00:23:55.297Z,47.09
2019-03-22T00:26:28.870Z,46.62
2019-03-22T00:29:02.808Z,44.99
2019-03-22T00:31:38.479Z,46.51
2019-03-22T00:34:12.099Z,47.05
2019-03-22T00:36:45.628Z,47.63
2019-03-22T00:39:19.310Z,46.71
2019-03-22T00:41:52.657Z,46.71
2019-03-22T00:44:26.305Z,46.05
2019-03-22T00:47:00.167Z,45.29
2019-03-22T00:49:33.775Z,45.15
2019-03-22T00:52:09.215Z,47.59
2019-03-22T00:54:42.828Z,47.14
2019-03-22T00:57:27.572Z,45.33
2019-03-22T00:59:51.170Z,47.14
2019-03-22T01:02:24.805Z,46.94
2019-03-22T01:04:58.868Z,46.49
2019-03-22T01:07:32.672Z,46.08
2019-03-22T01:10:08.427Z,44.06
2019-03-22T01:12:42.229Z,45.10
2019-03-22T01:15:17.461Z,43.21
2019-03-22T01:17:50.944Z,43.23
2019-03-22T01:20:24.463Z,41.33
2019-03-22T01:22:58.441Z,41.44
2019-03-22T01:25:32.137Z,42.25
2019-03-22T01:28:05.929Z,41.19
2019-03-22T01:30:39.491Z,40.74
2019-03-22T01:33:14.397Z,39.98
2019-03-22T01:35:48.305Z,39.68
2019-03-22T01:38:22.069Z,40.71
2019-03-22T01:40:55.831Z,39.41
2019-03-22T01:43:29.716Z,38.60
2019-03-22T01:46:05.191Z,38.41
2019-03-22T01:48:39.119Z,35.99
2019-03-22T01:51:13.231Z,35.17
2019-03-22T01:53:46.747Z,36.64
2019-03-22T01:56:20.362Z,38.09
2019-03-22T01:58:54.248Z,34.90
2019-03-22T02:01:28.187Z,35.79
2019-03-22T02:04:02.078Z,34.91
2019-03-22T02:06:35.827Z,32.26
2019-03-22T02:09:29.098Z,34.02
2019-03-22T02:12:03.213Z,35.72
2019-03-22T02:14:37.578Z,34.69
2019-03-22T02:17:13.462Z,34.46
2019-03-22T02:19:47.220Z,34.04
2019-03-22T02:22:21.285Z,32.46
2019-03-22T02:24:56.969Z,33.80
2019-03-22T02:27:30.745Z,32.39
2019-03-22T02:30:06.487Z,30.88
2019-03-22T02:32:40.529Z,30.88
2019-03-22T02:35:27.397Z,29.73
2019-03-22T02:37:49.389Z,30.32
2019-03-22T02:40:23.513Z,32.47
2019-03-22T02:42:57.527Z,27.41
2019-03-22T02:45:31.478Z,30.61
2019-03-22T02:48:05.390Z,31.66
2019-03-22T02:50:39.266Z,33.35
2019-03-22T02:53:12.943Z,33.07
2019-03-22T02:55:46.924Z,32.30
2019-03-22T02:58:21.515Z,33.50
2019-03-22T03:00:55.528Z,32.47
2019-03-22T03:03:29.273Z,33.76
2019-03-22T03:06:03.101Z,34.94
2019-03-22T03:08:37.529Z,32.18
2019-03-22T03:11:11.725Z,34.36
2019-03-22T03:13:45.423Z,34.11
2019-03-22T03:16:19.408Z,34.61
2019-03-22T03:18:54.734Z,34.83
2019-03-22T03:21:28.888Z,33.62
2019-03-22T03:24:03.126Z,34.43
2019-03-22T03:26:36.953Z,32.48
2019-03-22T03:29:10.869Z,33.13
2019-03-22T03:31:45.170Z,31.97
2019-03-22T03:34:19.393Z,33.96
2019-03-22T03:36:53.318Z,33.08
2019-03-22T03:39:27.125Z,30.60
2019-03-22T03:42:22.108Z,32.31
2019-03-22T03:44:56.361Z,33.46
2019-03-22T03:47:30.203Z,32.20
2019-03-22T03:50:04.544Z,33.22
2019-03-22T03:52:39.611Z,31.67
2019-03-22T03:55:16.314Z,30.25
2019-03-22T03:57:50.005Z,34.03
2019-03-22T04:00:23.956Z,33.13
2019-03-22T04:02:58.397Z,34.35
2019-03-22T04:05:32.176Z,32.49
2019-03-22T04:08:06.240Z,33.14
2019-03-22T04:10:41.702Z,32.57
2019-03-22T04:13:16.083Z,33.97
2019-03-22T04:15:49.891Z,34.72
2019-03-22T04:18:28.209Z,33.88
2019-03-22T04:21:01.984Z,37.91
2019-03-22T04:23:35.884Z,39.77
2019-03-22T04:26:11.158Z,38.84
2019-03-22T04:28:45.468Z,37.00
2019-03-22T04:31:19.476Z,38.53
2019-03-22T04:33:53.160Z,38.72
2019-03-22T04:36:27.106Z,39.65
2019-03-22T04:39:01.387Z,40.28
2019-03-22T04:41:36.591Z,38.62
2019-03-22T04:44:10.420Z,38.20
2019-03-22T04:46:46.936Z,40.21
2019-03-22T04:49:26.845Z,41.78
2019-03-22T04:52:00.830Z,42.01
2019-03-22T04:54:37.158Z,43.27
2019-03-22T04:57:14.035Z,42.36
2019-03-22T04:59:49.928Z,45.41
2019-03-22T05:02:24.105Z,46.51
2019-03-22T05:04:58.718Z,43.04
2019-03-22T05:07:33.347Z,42.52
2019-03-22T05:10:08.333Z,47.17
2019-03-22T05:12:44.431Z,48.49
2019-03-22T05:15:21.230Z,48.81
2019-03-22T05:17:57.859Z,48.49
2019-03-22T05:20:32.109Z,49.14
2019-03-22T05:23:07.039Z,50.21
2019-03-22T05:25:42.454Z,52.37
2019-03-22T05:28:18.810Z,53.31
2019-03-22T05:31:07.319Z,51.74
2019-03-22T05:33:41.368Z,54.03
2019-03-22T05:36:16.758Z,52.39
2019-03-22T05:38:52.101Z,53.48
2019-03-22T05:41:26.832Z,52.46
2019-03-22T05:44:00.547Z,54.48
2019-03-22T05:46:36.026Z,53.53
2019-03-22T05:49:10.845Z,52.39
2019-03-22T05:51:44.978Z,53.83
2019-03-22T05:54:18.711Z,51.60
2019-03-22T05:56:52.591Z,50.45
2019-03-22T05:59:27.730Z,52.09
2019-03-22T06:02:02.216Z,52.81
2019-03-22T06:04:36.166Z,51.94
2019-03-22T06:07:10.207Z,52.07
2019-03-22T06:09:44.760Z,51.83
2019-03-22T06:12:19.256Z,50.97
2019-03-22T06:14:53.517Z,50.89
2019-03-22T06:17:29.598Z,52.00
2019-03-22T06:20:03.665Z,53.55
2019-03-22T06:22:37.647Z,52.56
2019-03-22T06:25:15.662Z,49.68
2019-03-22T06:27:52.083Z,52.21
2019-03-22T06:30:26.486Z,49.71
2019-03-22T06:33:00.747Z,51.24
2019-03-22T06:35:35.217Z,50.80
2019-03-22T06:38:09.101Z,50.27
2019-03-22T06:40:43.088Z,49.83
2019-03-22T06:43:17.001Z,50.68
2019-03-22T06:45:51.498Z,51.68
2019-03-22T06:48:27.539Z,49.43
2019-03-22T06:51:01.404Z,52.36
2019-03-22T06:53:35.287Z,51.41
2019-03-22T06:56:09.165Z,51.94
2019-03-22T06:58:42.978Z,52.04
2019-03-22T07:01:16.925Z,51.09
2019-03-22T07:03:52.399Z,53.46
2019-03-22T07:06:26.236Z,51.14
2019-03-22T07:09:00.103Z,49.62
2019-03-22T07:11:34.354Z,54.74
2019-03-22T07:14:08.322Z,52.32
2019-03-22T07:16:42.038Z,51.98
2019-03-22T07:19:15.849Z,50.06
2019-03-22T07:21:49.570Z,52.33
2019-03-22T07:24:23.375Z,51.93
2019-03-22T07:26:57.242Z,50.91
2019-03-22T07:29:31.284Z,51.88
2019-03-22T07:32:05.728Z,53.13
2019-03-22T07:34:39.384Z,52.44
2019-03-22T07:37:12.892Z,49.73
2019-03-22T07:39:47.299Z,52.61
2019-03-22T07:42:21.085Z,50.82
2019-03-22T07:44:55.580Z,54.97
2019-03-22T07:47:29.560Z,53.30
2019-03-22T07:50:03.520Z,52.37
2019-03-22T07:52:37.257Z,53.25
2019-03-22T07:55:12.148Z,53.58
2019-03-22T07:57:46.607Z,53.67
2019-03-22T08:00:30.291Z,53.75
2019-03-22T08:02:55.581Z,53.94
2019-03-22T08:05:32.214Z,52.77
2019-03-22T08:08:06.710Z,53.52
2019-03-22T08:10:43.660Z,55.11
2019-03-22T08:13:18.057Z,53.79
2019-03-22T08:15:52.187Z,54.98
2019-03-22T08:18:29.512Z,53.35
2019-03-22T08:21:04.070Z,54.42
2019-03-22T08:23:37.919Z,54.77
2019-03-22T08:26:11.736Z,54.44
2019-03-22T08:28:45.968Z,55.98
2019-03-22T08:31:19.879Z,53.98
2019-03-22T08:33:53.937Z,58.03
2019-03-22T08:36:28.137Z,56.45
2019-03-22T08:39:02.011Z,55.69
2019-03-22T08:41:35.881Z,55.11
2019-03-22T08:44:09.960Z,55.11
2019-03-22T08:46:45.793Z,57.46
2019-03-22T08:49:19.730Z,55.57
2019-03-22T08:51:54.152Z,54.73
2019-03-22T08:54:28.092Z,56.20
2019-03-22T08:57:02.050Z,57.13
2019-03-22T08:59:37.207Z,57.88
2019-03-22T09:02:11.050Z,59.59
2019-03-22T09:04:44.689Z,56.70
2019-03-22T09:07:18.479Z,57.22
2019-03-22T09:10:01.789Z,57.61
2019-03-22T09:12:37.703Z,57.70
2019-03-22T09:15:12.653Z,56.18
2019-03-22T09:17:47.122Z,57.79
2019-03-22T09:20:21.681Z,59.18
2019-03-22T09:22:56.177Z,56.59
2019-03-22T09:25:30.908Z,59.17
2019-03-22T09:28:05.551Z,58.82
2019-03-22T09:30:40.085Z,56.49
2019-03-22T09:33:17.733Z,57.71
2019-03-22T09:35:54.041Z,57.01
2019-03-22T09:38:29.088Z,58.47
2019-03-22T09:41:03.442Z,57.92
2019-03-22T09:43:40.181Z,56.12
2019-03-22T09:46:14.941Z,58.78
2019-03-22T09:48:49.597Z,58.10
2019-03-22T09:51:24.745Z,58.70
2019-03-22T09:54:03.004Z,56.69
2019-03-22T09:56:47.315Z,58.71
2019-03-22T09:59:19.654Z,57.06
2019-03-22T10:01:56.861Z,58.31
2019-03-22T10:04:31.729Z,56.29
2019-03-22T10:07:06.428Z,56.19
2019-03-22T10:09:41.031Z,55.21
2019-03-22T10:12:15.587Z,57.77
2019-03-22T10:14:51.122Z,54.41
2019-03-22T10:17:25.658Z,55.43
2019-03-22T10:20:02.565Z,57.05
2019-03-22T10:22:36.641Z,54.97
2019-03-22T10:25:12.367Z,57.38
2019-03-22T10:27:49.890Z,53.56
2019-03-22T10:30:25.072Z,51.61
2019-03-22T10:33:03.331Z,53.55
2019-03-22T10:35:38.795Z,56.07
2019-03-22T10:38:16.206Z,52.62
2019-03-22T10:40:48.124Z,50.34
2019-03-22T10:43:22.951Z,46.85
2019-03-22T10:45:57.810Z,48.57
2019-03-22T10:48:32.252Z,49.11
2019-03-22T10:51:07.557Z,51.94
2019-03-22T10:53:43.608Z,49.33
2019-03-22T10:56:18.549Z,50.20
2019-03-22T10:58:52.939Z,48.91
2019-03-22T11:01:27.218Z,49.22
2019-03-22T11:04:02.000Z,51.14
2019-03-22T11:06:36.831Z,51.92
2019-03-22T11:09:12.957Z,55.22
2019-03-22T11:11:47.703Z,52.86
2019-03-22T11:14:23.119Z,50.79
2019-03-22T11:17:00.032Z,54.04
2019-03-22T11:19:35.229Z,53.91
2019-03-22T11:22:12.870Z,50.24
2019-03-22T11:24:51.255Z,49.63
2019-03-22T11:27:27.387Z,53.63
2019-03-22T11:30:02.159Z,52.32
2019-03-22T11:32:38.594Z,51.29
2019-03-22T11:35:15.965Z,51.39
2019-03-22T11:37:51.289Z,49.27
2019-03-22T11:40:26.762Z,52.03
2019-03-22T11:43:08.483Z,52.08
2019-03-22T11:45:43.686Z,55.31
2019-03-22T11:48:30.955Z,51.49
2019-03-22T11:51:15.570Z,54.72
2019-03-22T11:53:57.623Z,52.12
2019-03-22T11:56:32.242Z,54.67
2019-03-22T11:59:07.692Z,53.87
2019-03-22T12:01:45.218Z,55.61
2019-03-22T12:04:23.528Z,55.20
2019-03-22T12:06:59.588Z,52.80
2019-03-22T12:09:37.276Z,56.09
2019-03-22T12:12:15.292Z,56.80
2019-03-22T12:14:50.999Z,52.21
2019-03-22T12:17:26.793Z,52.21
2019-03-22T12:20:02.247Z,53.70
2019-03-22T12:22:39.380Z,56.42
2019-03-22T12:25:17.061Z,53.22
2019-03-22T12:27:53.059Z,53.95
2019-03-22T12:30:28.416Z,51.91
2019-03-22T12:33:04.506Z,53.87
2019-03-22T12:35:42.669Z,54.17
2019-03-22T12:38:20.225Z,56.58
2019-03-22T12:40:56.114Z,54.74
2019-03-22T12:43:31.021Z,57.63
2019-03-22T12:46:07.500Z,51.59
2019-03-22T12:48:42.389Z,53.25
2019-03-22T12:51:17.775Z,54.62
2019-03-22T12:54:04.540Z,49.03
2019-03-22T12:56:39.864Z,54.40
2019-03-22T12:59:15.928Z,51.45
2019-03-22T13:01:51.626Z,52.55
2019-03-22T13:04:26.528Z,57.14
2019-03-22T13:07:01.758Z,53.61
2019-03-22T13:09:36.970Z,54.33
2019-03-22T13:12:17.023Z,55.45
2019-03-22T13:14:53.134Z,56.23
2019-03-22T13:17:30.000Z,58.48
2019-03-22T13:20:06.449Z,59.10
2019-03-22T13:22:41.500Z,58.40
2019-03-22T13:25:18.176Z,57.46
2019-03-22T13:27:53.858Z,55.46
2019-03-22T13:30:39.092Z,53.58
2019-03-22T13:33:17.726Z,58.53
2019-03-22T13:35:53.588Z,56.09
2019-03-22T13:38:27.650Z,55.76
2019-03-22T13:41:03.461Z,56.42
2019-03-22T13:43:37.756Z,54.79
2019-03-22T13:46:14.438Z,52.41
2019-03-22T13:48:49.939Z,53.78
2019-03-22T13:51:25.847Z,52.32
2019-03-22T13:54:00.569Z,50.91
2019-03-22T13:56:34.942Z,54.08
2019-03-22T13:59:09.484Z,51.19
2019-03-22T14:01:45.096Z,54.15
2019-03-22T14:04:19.780Z,55.47
2019-03-22T14:06:53.981Z,52.52
2019-03-22T14:09:30.439Z,53.88
2019-03-22T14:12:04.500Z,49.58
2019-03-22T14:14:39.461Z,49.22
2019-03-22T14:17:14.263Z,49.86
2019-03-22T14:19:49.348Z,50.13
2019-03-22T14:22:24.896Z,51.65
2019-03-22T14:24:59.449Z,51.65
2019-03-22T14:27:33.675Z,53.78
2019-03-22T14:30:09.525Z,51.07
2019-03-22T14:32:45.184Z,53.47
2019-03-22T14:35:21.335Z,53.53
2019-03-22T14:37:57.331Z,55.59
2019-03-22T14:40:32.948Z,56.36
2019-03-22T14:43:07.051Z,54.75
2019-03-22T14:45:41.102Z,55.33
2019-03-22T14:48:15.801Z,56.36
2019-03-22T14:50:49.863Z,55.39
2019-03-22T14:53:24.010Z,53.53
2019-03-22T14:55:58.005Z,51.67
2019-03-22T14:58:32.044Z,53.81
2019-03-22T15:01:06.650Z,51.88
2019-03-22T15:03:40.748Z,52.66
2019-03-22T15:06:14.807Z,51.86
2019-03-22T15:08:49.351Z,52.40
2019-03-22T15:11:23.147Z,52.67
2019-03-22T15:13:57.808Z,54.13
2019-03-22T15:16:32.122Z,53.33
2019-03-22T15:19:05.857Z,53.77
2019-03-22T15:21:42.091Z,52.73
2019-03-22T15:24:16.668Z,53.87
2019-03-22T15:26:50.524Z,55.02
2019-03-22T15:29:26.046Z,55.13
2019-03-22T15:32:00.184Z,54.90
2019-03-22T15:34:35.941Z,54.82
2019-03-22T15:37:10.248Z,54.06
2019-03-22T15:39:46.181Z,54.52
2019-03-22T15:42:21.018Z,54.19
2019-03-22T15:44:55.049Z,56.34
2019-03-22T15:47:29.293Z,55.45
2019-03-22T15:50:03.379Z,54.59
2019-03-22T15:52:37.542Z,56.67
2019-03-22T15:55:14.550Z,55.55
2019-03-22T15:57:51.579Z,55.75
2019-03-22T16:00:25.729Z,56.95
2019-03-22T16:03:02.539Z,56.39
2019-03-22T16:05:38.426Z,56.71
2019-03-22T16:08:12.555Z,56.48
2019-03-22T16:10:46.861Z,56.61
2019-03-22T16:13:20.839Z,58.12
2019-03-22T16:15:55.300Z,56.48
2019-03-22T16:18:29.050Z,59.80
2019-03-22T16:21:02.844Z,59.24
2019-03-22T16:23:37.870Z,58.42
2019-03-22T16:26:13.189Z,58.80
2019-03-22T16:28:47.403Z,60.70
2019-03-22T16:31:21.504Z,58.44
2019-03-22T16:33:55.513Z,59.29
2019-03-22T16:36:31.793Z,59.62
2019-03-22T16:39:07.397Z,59.03
2019-03-22T16:41:41.633Z,58.69
2019-03-22T16:44:15.722Z,58.21
2019-03-22T16:46:50.708Z,59.78
2019-03-22T16:49:24.370Z,58.58
2019-03-22T16:51:58.371Z,59.49
2019-03-22T16:54:33.787Z,59.28
2019-03-22T16:57:09.548Z,58.76
2019-03-22T16:59:43.717Z,59.93
2019-03-22T17:02:17.871Z,58.87
2019-03-22T17:04:51.820Z,59.79
2019-03-22T17:07:25.956Z,59.51
2019-03-22T17:09:59.955Z,61.45
2019-03-22T17:12:33.874Z,61.11
2019-03-22T17:15:08.808Z,60.44
2019-03-22T17:17:43.028Z,61.38
2019-03-22T17:20:17.143Z,59.98
2019-03-22T17:22:51.014Z,61.22
2019-03-22T17:25:26.922Z,61.05
2019-03-22T17:28:00.986Z,61.39
2019-03-22T17:30:34.772Z,62.09
2019-03-22T17:33:08.730Z,62.17
2019-03-22T17:35:42.614Z,60.92
2019-03-22T17:38:16.846Z,61.36
2019-03-22T17:40:51.691Z,61.34
2019-03-22T17:43:26.860Z,61.72
2019-03-22T17:46:20.258Z,61.87
2019-03-22T17:48:57.600Z,63.03
2019-03-22T17:51:31.825Z,61.48
2019-03-22T17:54:05.900Z,62.37
2019-03-22T17:56:39.831Z,63.16
2019-03-22T17:59:14.408Z,62.31
2019-03-22T18:01:48.250Z,62.56
2019-03-22T18:04:26.020Z,63.00
2019-03-22T18:07:02.293Z,62.49
2019-03-22T18:09:35.914Z,62.33
2019-03-22T18:12:10.256Z,62.49
2019-03-22T18:14:44.459Z,64.15
2019-03-22T18:17:20.082Z,63.01
2019-03-22T18:19:54.097Z,62.59
2019-03-22T18:22:30.502Z,62.57
2019-03-22T18:25:04.804Z,63.23
2019-03-22T18:27:38.510Z,64.21
2019-03-22T18:30:17.895Z,63.13
2019-03-22T18:32:59.552Z,63.62
2019-03-22T18:35:33.256Z,63.62
2019-03-22T18:38:07.277Z,62.80
2019-03-22T18:40:41.636Z,62.97
2019-03-22T18:43:15.955Z,62.48
2019-03-22T18:45:49.947Z,62.54
2019-03-22T18:48:23.640Z,62.65
2019-03-22T18:50:58.093Z,63.61
2019-03-22T18:53:32.298Z,63.99
2019-03-22T18:56:06.460Z,62.25
2019-03-22T18:58:40.859Z,60.89
2019-03-22T19:01:14.787Z,60.99
2019-03-22T19:03:48.603Z,62.06
2019-03-22T19:06:22.992Z,61.63
2019-03-22T19:08:56.904Z,61.60
2019-03-22T19:11:33.569Z,62.28
2019-03-22T19:14:07.479Z,62.16
2019-03-22T19:16:41.159Z,60.98
2019-03-22T19:19:15.920Z,60.94
2019-03-22T19:21:50.059Z,62.62
2019-03-22T19:24:23.957Z,59.96
2019-03-22T19:27:00.904Z,60.40
2019-03-22T19:29:35.015Z,59.88
2019-03-22T19:32:13.386Z,60.34
2019-03-22T19:34:53.958Z,59.22
2019-03-22T19:37:20.322Z,59.52
2019-03-22T19:39:54.304Z,58.69
2019-03-22T19:42:28.218Z,59.25
2019-03-22T19:45:02.567Z,59.18
2019-03-22T19:47:36.740Z,60.61
2019-03-22T19:50:16.544Z,59.53
2019-03-22T19:52:50.633Z,58.94
2019-03-22T19:55:29.079Z,60.86
2019-03-22T19:58:04.604Z,58.18
2019-03-22T20:00:38.784Z,59.33
2019-03-22T20:03:13.050Z,57.96
2019-03-22T20:05:47.318Z,57.38
2019-03-22T20:08:21.452Z,57.29
2019-03-22T20:10:55.596Z,58.75
2019-03-22T20:13:30.530Z,56.34
2019-03-22T20:16:04.435Z,57.18
2019-03-22T20:18:38.156Z,59.39
2019-03-22T20:21:12.870Z,57.94
2019-03-22T20:23:53.677Z,55.87
2019-03-22T20:26:25.029Z,57.66
2019-03-22T20:28:58.720Z,56.72
2019-03-22T20:31:33.012Z,55.65
2019-03-22T20:34:06.896Z,55.67
2019-03-22T20:36:43.641Z,55.30
2019-03-22T20:39:17.600Z,55.97
2019-03-22T20:41:51.334Z,55.83
2019-03-22T20:44:33.606Z,56.94
2019-03-22T20:47:00.289Z,56.42
2019-03-22T20:49:34.225Z,56.21
2019-03-22T20:52:09.968Z,54.37
2019-03-22T20:54:43.999Z,55.98
2019-03-22T20:57:19.575Z,55.73
2019-03-22T20:59:53.430Z,56.50
2019-03-22T21:02:27.559Z,56.10
2019-03-22T21:05:02.942Z,55.73
2019-03-22T21:07:37.167Z,54.71
2019-03-22T21:10:14.553Z,55.30
2019-03-22T21:12:48.586Z,54.73
2019-03-22T21:15:24.606Z,53.40
2019-03-22T21:17:58.069Z,53.46
2019-03-22T21:20:33.758Z,55.76
2019-03-22T21:23:07.641Z,53.79
2019-03-22T21:25:41.794Z,53.66
2019-03-22T21:28:16.515Z,53.19
2019-03-22T21:30:51.600Z,52.45
2019-03-22T21:33:25.191Z,51.65
2019-03-22T21:35:59.109Z,51.86
2019-03-22T21:38:33.335Z,51.98
2019-03-22T21:41:07.143Z,53.09
2019-03-22T21:43:42.494Z,53.58
2019-03-22T21:46:17.985Z,53.54
2019-03-22T21:48:53.247Z,54.30
2019-03-22T21:51:27.645Z,54.22
2019-03-22T21:54:01.600Z,51.91
2019-03-22T21:56:35.457Z,52.35
2019-03-22T21:59:09.345Z,52.92
2019-03-22T22:01:43.062Z,52.23
2019-03-22T22:04:16.814Z,52.24
2019-03-22T22:06:50.774Z,52.96
2019-03-22T22:09:25.101Z,52.60
2019-03-22T22:11:59.159Z,51.93
2019-03-22T22:14:40.471Z,51.28
2019-03-22T22:17:09.478Z,52.63
2019-03-22T22:19:43.848Z,52.10
2019-03-22T22:22:17.485Z,51.63
2019-03-22T22:24:51.256Z,52.08
2019-03-22T22:27:26.433Z,51.39
2019-03-22T22:30:00.376Z,50.37
2019-03-22T22:32:34.908Z,51.24
2019-03-22T22:35:10.482Z,51.10
2019-03-22T22:37:44.431Z,53.36
2019-03-22T22:40:18.256Z,51.14
2019-03-22T22:42:53.361Z,52.50
2019-03-22T22:45:27.688Z,51.59
2019-03-22T22:48:01.539Z,51.03
2019-03-22T22:50:35.270Z,51.48
2019-03-22T22:53:08.951Z,51.05
2019-03-22T22:55:42.728Z,50.56
2019-03-22T22:58:17.000Z,51.26
2019-03-22T23:00:51.287Z,52.38
2019-03-22T23:03:25.225Z,49.28
2019-03-22T23:06:08.861Z,49.47
2019-03-22T23:08:34.065Z,49.01
2019-03-22T23:11:08.027Z,50.12
2019-03-22T23:13:41.761Z,49.55
2019-03-22T23:16:15.524Z,48.28
2019-03-22T23:18:49.510Z,47.40
2019-03-22T23:21:23.313Z,48.18
2019-03-22T23:23:57.146Z,49.93
2019-03-22T23:26:31.683Z,49.32
2019-03-22T23:29:06.976Z,49.69
2019-03-22T23:31:40.700Z,48.09
2019-03-22T23:34:14.582Z,47.87
2019-03-22T23:36:49.137Z,48.63
2019-03-22T23:39:24.080Z,47.51
2019-03-22T23:41:58.891Z,47.55
2019-03-22T23:44:35.723Z,47.91
2019-03-22T23:47:09.677Z,48.93
2019-03-22T23:49:43.853Z,49.24
2019-03-22T23:52:17.597Z,48.84
2019-03-22T23:54:51.736Z,49.37
2019-03-22T23:57:25.721Z,48.39
